createdAt,value
2022-11-27T00:00:59.911Z,98.83
2022-11-27T00:01:59.893Z,98.99
2022-11-27T00:02:59.991Z,98.99
2022-11-27T00:03:59.934Z,98.99
2022-11-27T00:04:59.891Z,98.99
2022-11-27T00:05:59.851Z,98.99
2022-11-27T00:06:59.834Z,99.10
2022-11-27T00:07:59.872Z,98.99
2022-11-27T00:08:59.812Z,98.89
2022-11-27T00:09:59.771Z,98.89
2022-11-27T00:10:59.800Z,98.79
2022-11-27T00:11:59.786Z,98.79
2022-11-27T00:12:59.744Z,98.68
2022-11-27T00:13:59.736Z,98.68
2022-11-27T00:15:00.713Z,98.58
2022-11-27T00:15:59.758Z,98.58
2022-11-27T00:16:59.712Z,98.58
2022-11-27T00:17:59.681Z,98.58
2022-11-27T00:18:59.760Z,98.47
2022-11-27T00:19:59.734Z,98.47
2022-11-27T00:20:59.642Z,98.47
2022-11-27T00:21:59.640Z,98.47
2022-11-27T00:22:59.613Z,98.47
2022-11-27T00:23:59.614Z,98.47
2022-11-27T00:24:59.584Z,98.58
2022-11-27T00:25:59.611Z,98.68
2022-11-27T00:26:59.593Z,98.63
2022-11-27T00:27:59.542Z,98.80
2022-11-27T00:28:59.553Z,98.69
2022-11-27T00:29:59.547Z,98.69
2022-11-27T00:30:59.684Z,98.55
2022-11-27T00:31:59.503Z,98.65
2022-11-27T00:32:59.482Z,98.55
2022-11-27T00:33:59.465Z,98.44
2022-11-27T00:34:59.454Z,98.34
2022-11-27T00:35:59.475Z,98.13
2022-11-27T00:36:59.444Z,98.02
2022-11-27T00:37:59.412Z,97.86
2022-11-27T00:38:59.400Z,97.75
2022-11-27T00:39:59.410Z,97.75
2022-11-27T00:40:59.408Z,97.70
2022-11-27T00:41:59.364Z,97.70
2022-11-27T00:42:59.385Z,97.70
2022-11-27T00:43:59.339Z,97.85
2022-11-27T00:44:59.336Z,97.95
2022-11-27T00:45:59.375Z,97.95
2022-11-27T00:46:59.341Z,97.95
2022-11-27T00:47:59.277Z,98.05
2022-11-27T00:48:59.266Z,98.05
2022-11-27T00:49:59.272Z,98.10
2022-11-27T00:50:59.288Z,98.10
2022-11-27T00:51:59.245Z,98.10
2022-11-27T00:52:59.225Z,98.21
2022-11-27T00:53:59.197Z,98.21
2022-11-27T00:54:59.191Z,98.21
2022-11-27T00:55:59.217Z,98.21
2022-11-27T00:56:59.158Z,98.31
2022-11-27T00:57:59.147Z,98.31
2022-11-27T00:59:00.146Z,98.41
2022-11-27T00:59:59.143Z,98.41
2022-11-27T01:00:59.099Z,98.52
2022-11-27T01:01:59.153Z,98.52
2022-11-27T01:02:59.145Z,98.52
2022-11-27T01:03:59.101Z,98.52
2022-11-27T01:04:59.067Z,98.52
2022-11-27T01:05:59.065Z,98.52
2022-11-27T01:06:59.065Z,98.52
2022-11-27T01:07:59.066Z,98.52
2022-11-27T01:08:59.030Z,98.52
2022-11-27T01:09:58.997Z,98.52
2022-11-27T01:10:58.999Z,98.52
2022-11-27T01:11:59.000Z,98.62
2022-11-27T01:12:58.977Z,98.52
2022-11-27T01:13:58.948Z,98.52
2022-11-27T01:14:58.932Z,98.56
2022-11-27T01:15:58.952Z,98.56
2022-11-27T01:16:58.931Z,98.56
2022-11-27T01:17:58.900Z,98.56
2022-11-27T01:18:58.891Z,98.56
2022-11-27T01:19:58.868Z,98.56
2022-11-27T01:20:58.862Z,98.56
2022-11-27T01:21:58.866Z,98.46
2022-11-27T01:22:58.841Z,98.50
2022-11-27T01:23:58.832Z,98.61
2022-11-27T01:24:58.829Z,98.50
2022-11-27T01:25:58.805Z,98.50
2022-11-27T01:26:58.789Z,98.50
2022-11-27T01:27:58.769Z,98.61
2022-11-27T01:28:58.760Z,98.61
2022-11-27T01:29:58.754Z,98.61
2022-11-27T01:30:58.796Z,98.71
2022-11-27T01:31:58.742Z,98.67
2022-11-27T01:32:58.718Z,98.77
2022-11-27T01:33:58.697Z,98.67
2022-11-27T01:34:58.693Z,98.77
2022-11-27T01:35:58.673Z,98.77
2022-11-27T01:36:58.662Z,98.77
2022-11-27T01:37:58.638Z,98.72
2022-11-27T01:38:58.639Z,98.83
2022-11-27T01:39:58.631Z,98.72
2022-11-27T01:40:58.592Z,98.72
2022-11-27T01:41:59.591Z,98.62
2022-11-27T01:42:59.575Z,98.52
2022-11-27T01:43:58.572Z,98.52
2022-11-27T01:44:58.552Z,98.41
2022-11-27T01:45:58.569Z,98.52
2022-11-27T01:46:59.585Z,98.41
2022-11-27T01:47:58.550Z,98.31
2022-11-27T01:48:58.506Z,98.35
2022-11-27T01:49:58.492Z,98.35
2022-11-27T01:50:58.490Z,98.35
2022-11-27T01:51:58.473Z,98.35
2022-11-27T01:52:58.448Z,98.35
2022-11-27T01:53:58.430Z,98.35
2022-11-27T01:54:58.418Z,98.35
2022-11-27T01:55:58.402Z,98.35
2022-11-27T01:56:58.420Z,98.35
2022-11-27T01:57:58.381Z,98.35
2022-11-27T01:58:58.387Z,98.35
2022-11-27T01:59:58.353Z,98.35
2022-11-27T02:00:58.330Z,98.39
2022-11-27T02:01:58.379Z,98.39
2022-11-27T02:02:58.375Z,98.39
2022-11-27T02:03:59.301Z,98.39
2022-11-27T02:04:58.282Z,98.39
2022-11-27T02:05:58.273Z,98.39
2022-11-27T02:06:58.262Z,98.39
2022-11-27T02:07:59.337Z,98.39
2022-11-27T02:08:59.242Z,98.39
2022-11-27T02:09:58.223Z,98.44
2022-11-27T02:10:58.196Z,98.44
2022-11-27T02:11:58.224Z,98.44
2022-11-27T02:12:58.201Z,98.44
2022-11-27T02:13:58.172Z,98.44
2022-11-27T02:14:58.171Z,98.44
2022-11-27T02:15:58.221Z,98.44
2022-11-27T02:16:58.130Z,98.44
2022-11-27T02:17:58.131Z,98.55
2022-11-27T02:18:58.132Z,98.55
2022-11-27T02:19:58.118Z,98.55
2022-11-27T02:20:58.081Z,98.55
2022-11-27T02:21:58.071Z,98.55
2022-11-27T02:22:58.058Z,98.55
2022-11-27T02:23:58.042Z,98.65
2022-11-27T02:24:58.023Z,98.65
2022-11-27T02:25:58.010Z,98.65
2022-11-27T02:26:58.007Z,98.65
2022-11-27T02:27:57.993Z,98.65
2022-11-27T02:28:57.981Z,98.65
2022-11-27T02:29:58.962Z,98.65
2022-11-27T02:30:57.986Z,98.55
2022-11-27T02:31:57.924Z,98.55
2022-11-27T02:32:57.922Z,98.55
2022-11-27T02:33:57.920Z,98.55
2022-11-27T02:34:57.893Z,98.55
2022-11-27T02:35:57.882Z,98.44
2022-11-27T02:36:57.853Z,98.44
2022-11-27T02:37:57.884Z,98.55
2022-11-27T02:38:57.846Z,98.44
2022-11-27T02:39:57.822Z,98.44
2022-11-27T02:40:57.804Z,98.44
2022-11-27T02:41:57.812Z,98.44
2022-11-27T02:42:57.815Z,98.49
2022-11-27T02:43:57.778Z,98.49
2022-11-27T02:44:57.753Z,98.49
2022-11-27T02:45:57.839Z,98.49
2022-11-27T02:46:57.793Z,98.49
2022-11-27T02:47:57.751Z,98.49
2022-11-27T02:48:57.717Z,98.49
2022-11-27T02:49:57.707Z,98.49
2022-11-27T02:50:57.676Z,98.49
2022-11-27T02:51:57.682Z,98.38
2022-11-27T02:52:57.658Z,98.38
2022-11-27T02:53:57.660Z,98.38
2022-11-27T02:54:57.622Z,98.38
2022-11-27T02:56:05.136Z,98.38
2022-11-27T02:57:05.134Z,98.28
2022-11-27T02:57:57.602Z,98.43
2022-11-27T02:58:57.682Z,98.32
2022-11-27T02:59:57.660Z,98.43
2022-11-27T03:01:05.081Z,98.32
2022-11-27T03:01:57.612Z,98.43
2022-11-27T03:03:06.267Z,98.32
2022-11-27T03:03:57.520Z,98.43
2022-11-27T03:05:05.038Z,98.32
2022-11-27T03:06:05.019Z,98.43
2022-11-27T03:07:06.005Z,98.32
2022-11-27T03:08:06.218Z,98.43
2022-11-27T03:10:07.718Z,98.43
2022-11-27T03:11:09.747Z,98.43
2022-11-27T03:13:17.920Z,98.43
2022-11-27T03:14:17.889Z,98.54
2022-11-27T03:15:17.942Z,98.43
2022-11-27T03:16:18.055Z,98.54
2022-11-27T03:17:17.950Z,98.54
2022-11-27T03:18:17.893Z,98.54
2022-11-27T03:19:17.837Z,98.54
2022-11-27T03:20:17.897Z,98.54
2022-11-27T03:21:17.892Z,98.54
2022-11-27T03:22:17.850Z,98.54
2022-11-27T03:23:17.913Z,98.64
2022-11-27T03:24:17.857Z,98.64
2022-11-27T03:25:17.828Z,98.54
2022-11-27T03:26:17.818Z,98.64
2022-11-27T03:27:18.780Z,98.69
2022-11-27T03:28:17.848Z,98.69
2022-11-27T03:29:17.774Z,98.75
2022-11-27T03:30:17.761Z,98.82
2022-11-27T03:31:17.780Z,98.77
2022-11-27T03:32:17.766Z,98.67
2022-11-27T03:33:17.795Z,98.67
2022-11-27T03:34:21.010Z,98.56
2022-11-27T03:35:17.650Z,98.35
2022-11-27T03:36:17.661Z,98.35
2022-11-27T03:37:17.701Z,98.25
2022-11-27T03:38:17.650Z,98.25
2022-11-27T03:39:17.630Z,98.10
2022-11-27T03:40:17.581Z,98.05
2022-11-27T03:41:17.551Z,97.95
2022-11-27T03:42:17.633Z,97.80
2022-11-27T03:43:17.639Z,97.59
2022-11-27T03:44:17.565Z,97.28
2022-11-27T03:45:17.561Z,96.97
2022-11-27T03:46:18.624Z,96.97
2022-11-27T03:47:17.722Z,96.55
2022-11-27T03:48:17.567Z,96.23
2022-11-27T03:49:17.504Z,96.03
2022-11-27T04:03:22.846Z,97.00
2022-11-27T04:04:22.952Z,97.00
2022-11-27T04:05:22.892Z,97.20
2022-11-27T04:06:22.902Z,97.20
2022-11-27T04:07:22.829Z,97.20
2022-11-27T04:08:43.814Z,97.31
2022-11-27T04:09:22.782Z,97.31
2022-11-27T04:10:22.848Z,97.31
2022-11-27T04:11:22.832Z,97.31
2022-11-27T04:12:22.721Z,97.41
2022-11-27T04:14:45.254Z,97.67
2022-11-27T04:15:45.232Z,97.77
2022-11-27T04:16:45.353Z,97.88
2022-11-27T04:17:45.185Z,97.88
2022-11-27T04:18:45.205Z,97.98
2022-11-27T04:19:46.179Z,97.98
2022-11-27T04:20:45.215Z,98.08
2022-11-27T04:21:45.231Z,98.08
2022-11-27T04:22:45.153Z,98.08
2022-11-27T04:23:45.092Z,98.08
2022-11-27T04:24:45.184Z,98.08
2022-11-27T04:25:45.072Z,98.08
2022-11-27T04:26:45.164Z,98.13
2022-11-27T04:27:45.046Z,98.19
2022-11-27T04:28:45.043Z,98.24
2022-11-27T04:29:45.103Z,98.24
2022-11-27T04:30:45.086Z,98.24
2022-11-27T04:31:45.104Z,98.24
2022-11-27T04:32:45.095Z,98.24
2022-11-27T04:33:44.997Z,98.24
2022-11-27T04:34:45.024Z,98.13
2022-11-27T04:35:45.044Z,98.24
2022-11-27T04:36:45.034Z,98.24
2022-11-27T04:37:45.023Z,98.24
2022-11-27T04:38:44.945Z,98.24
2022-11-27T04:39:44.965Z,98.34
2022-11-27T04:40:44.907Z,98.34
2022-11-27T04:41:44.948Z,98.38
2022-11-27T04:42:44.879Z,98.28
2022-11-27T04:43:44.870Z,98.28
2022-11-27T04:44:44.824Z,98.28
2022-11-27T04:45:44.845Z,98.28
2022-11-27T04:46:44.875Z,98.28
2022-11-27T04:47:44.907Z,98.28
2022-11-27T04:48:44.805Z,98.28
2022-11-27T04:49:44.775Z,98.28
2022-11-27T04:50:44.838Z,98.32
2022-11-27T04:51:44.824Z,98.32
2022-11-27T04:52:44.835Z,98.43
2022-11-27T04:53:44.728Z,98.43
2022-11-27T04:54:46.824Z,98.43
2022-11-27T04:55:46.713Z,98.43
2022-11-27T04:56:53.375Z,98.32
2022-11-27T04:57:44.770Z,98.43
2022-11-27T04:58:44.675Z,98.43
2022-11-27T04:59:52.149Z,98.32
2022-11-27T05:00:53.401Z,98.32
2022-11-27T05:01:44.596Z,98.43
2022-11-27T05:03:45.883Z,98.32
2022-11-27T05:04:53.374Z,98.32
2022-11-27T05:05:45.854Z,98.32
2022-11-27T05:06:45.942Z,98.32
2022-11-27T05:07:45.913Z,98.22
2022-11-27T05:08:45.877Z,98.22
2022-11-27T05:09:46.887Z,98.26
2022-11-27T05:10:45.816Z,98.26
2022-11-27T05:11:46.818Z,98.26
2022-11-27T05:12:45.807Z,98.26
2022-11-27T05:13:45.737Z,98.26
2022-11-27T05:14:45.744Z,98.26
2022-11-27T05:15:45.731Z,98.26
2022-11-27T05:16:46.748Z,98.26
2022-11-27T05:17:45.701Z,98.16
2022-11-27T05:18:45.757Z,98.16
2022-11-27T05:19:45.741Z,98.26
2022-11-27T05:20:45.787Z,98.21
2022-11-27T05:21:45.649Z,98.21
2022-11-27T05:22:45.637Z,98.21
2022-11-27T05:23:45.678Z,98.21
2022-11-27T05:24:45.667Z,98.31
2022-11-27T05:25:45.586Z,98.31
2022-11-27T05:26:45.601Z,98.31
2022-11-27T05:27:45.568Z,98.31
2022-11-27T05:28:45.557Z,98.31
2022-11-27T05:29:45.597Z,98.21
2022-11-27T05:30:45.637Z,98.31
2022-11-27T05:31:45.554Z,98.31
2022-11-27T05:32:45.527Z,98.31
2022-11-27T05:33:45.517Z,98.21
2022-11-27T05:34:45.487Z,98.21
2022-11-27T05:35:45.480Z,98.31
2022-11-27T05:36:45.529Z,98.21
2022-11-27T05:37:45.557Z,98.21
2022-11-27T05:38:45.443Z,98.25
2022-11-27T05:39:45.409Z,98.25
2022-11-27T05:40:45.516Z,98.25
2022-11-27T05:41:45.469Z,98.35
2022-11-27T05:42:45.384Z,98.35
2022-11-27T05:43:45.455Z,98.35
2022-11-27T05:44:45.397Z,98.35
2022-11-27T05:45:45.446Z,98.35
2022-11-27T05:46:45.481Z,98.35
2022-11-27T05:47:45.317Z,98.35
2022-11-27T05:48:45.429Z,98.35
2022-11-27T05:49:45.325Z,98.35
2022-11-27T05:50:46.378Z,98.46
2022-11-27T05:51:50.725Z,98.46
2022-11-27T05:52:46.268Z,98.46
2022-11-27T05:53:45.247Z,98.35
2022-11-27T05:54:45.267Z,98.46
2022-11-27T05:55:45.327Z,98.46
2022-11-27T05:56:46.308Z,98.35
2022-11-27T05:57:46.186Z,98.35
2022-11-27T05:58:45.194Z,98.35
2022-11-27T05:59:45.236Z,98.35
2022-11-27T06:00:45.169Z,98.35
2022-11-27T06:01:45.184Z,98.35
2022-11-27T06:02:47.287Z,98.35
2022-11-27T06:03:45.163Z,98.35
2022-11-27T06:04:45.100Z,98.35
2022-11-27T06:05:45.177Z,98.35
2022-11-27T06:06:45.129Z,98.35
2022-11-27T06:07:45.176Z,98.35
2022-11-27T06:08:45.168Z,98.35
2022-11-27T06:09:45.051Z,98.35
2022-11-27T06:10:45.126Z,98.35
2022-11-27T06:11:45.027Z,98.35
2022-11-27T06:12:45.029Z,98.35
2022-11-27T06:13:45.085Z,98.35
2022-11-27T06:14:45.048Z,98.35
2022-11-27T06:15:44.997Z,98.35
2022-11-27T06:16:45.100Z,98.25
2022-11-27T06:17:44.973Z,98.25
2022-11-27T06:18:44.967Z,98.25
2022-11-27T06:19:44.927Z,98.35
2022-11-27T06:20:48.980Z,98.35
2022-11-27T06:21:45.997Z,98.25
2022-11-27T06:22:44.934Z,98.25
2022-11-27T06:23:44.938Z,98.25
2022-11-27T06:24:44.950Z,98.25
2022-11-27T06:25:48.188Z,98.35
2022-11-27T06:26:44.869Z,98.35
2022-11-27T06:27:44.886Z,98.35
2022-11-27T06:28:44.898Z,98.25
2022-11-27T06:29:44.804Z,98.25
2022-11-27T06:30:44.789Z,98.35
2022-11-27T06:31:45.867Z,98.25
2022-11-27T06:32:44.765Z,98.25
2022-11-27T06:33:44.748Z,98.25
2022-11-27T06:34:44.806Z,98.35
2022-11-27T06:35:44.741Z,98.35
2022-11-27T06:36:44.738Z,98.35
2022-11-27T06:39:06.236Z,98.25
2022-11-27T06:40:06.277Z,98.25
2022-11-27T06:41:06.146Z,98.25
2022-11-27T06:42:06.165Z,98.25
2022-11-27T06:43:06.168Z,98.25
2022-11-27T06:44:06.187Z,98.25
2022-11-27T06:45:06.227Z,98.35
2022-11-27T06:46:06.176Z,98.35
2022-11-27T06:47:06.099Z,98.35
2022-11-27T06:48:06.036Z,98.35
2022-11-27T06:49:06.136Z,98.41
2022-11-27T06:50:07.038Z,98.41
2022-11-27T06:51:06.037Z,98.52
2022-11-27T06:52:06.144Z,98.52
2022-11-27T06:53:06.037Z,98.52
2022-11-27T06:54:06.038Z,98.47
2022-11-27T06:55:27.037Z,98.58
2022-11-27T06:56:05.988Z,98.58
2022-11-27T06:57:05.986Z,98.64
2022-11-27T06:58:05.968Z,98.54
2022-11-27T06:59:05.980Z,98.59
2022-11-27T07:00:05.979Z,98.65
2022-11-27T07:01:06.059Z,98.61
2022-11-27T07:02:05.945Z,98.46
2022-11-27T07:03:05.900Z,98.35
2022-11-27T07:04:05.856Z,98.21
2022-11-27T07:05:05.867Z,98.21
2022-11-27T07:06:05.923Z,97.85
2022-11-27T07:07:05.839Z,97.32
2022-11-27T07:08:05.858Z,97.01
2022-11-27T07:09:05.840Z,96.66
2022-11-27T07:10:05.857Z,96.44
2022-11-27T07:11:05.864Z,96.30
2022-11-27T07:12:05.776Z,96.09
2022-11-27T07:13:05.786Z,95.78
2022-11-27T07:14:05.777Z,95.46
2022-11-27T07:15:26.767Z,95.15
2022-11-27T07:16:05.715Z,94.94
2022-11-27T07:17:05.738Z,95.29
2022-11-27T07:18:05.690Z,95.56
2022-11-27T07:19:05.658Z,95.94
2022-11-27T07:20:05.707Z,95.58
2022-11-27T07:21:06.647Z,95.17
2022-11-27T07:22:05.627Z,94.81
2022-11-27T07:23:05.608Z,94.29
2022-11-27T07:24:05.644Z,94.18
2022-11-27T07:25:05.587Z,94.24
2022-11-27T07:26:05.577Z,93.54
2022-11-27T07:27:05.593Z,92.55
2022-11-27T07:28:05.560Z,91.52
2022-11-27T07:29:05.559Z,91.00
2022-11-27T07:30:05.574Z,91.14
2022-11-27T07:31:05.681Z,91.66
2022-11-27T07:32:05.863Z,91.56
2022-11-27T07:33:05.530Z,91.52
2022-11-27T07:34:09.876Z,91.35
2022-11-27T07:35:06.457Z,91.14
2022-11-27T07:36:05.438Z,91.39
2022-11-27T07:37:05.450Z,91.81
2022-11-27T07:38:05.433Z,92.54
2022-11-27T07:39:05.421Z,92.74
2022-11-27T07:40:05.392Z,92.79
2022-11-27T07:41:07.601Z,93.10
2022-11-27T07:42:30.964Z,93.41
2022-11-27T07:43:06.380Z,93.66
2022-11-27T07:44:05.357Z,94.08
2022-11-27T07:45:05.378Z,94.39
2022-11-27T07:46:05.434Z,94.92
2022-11-27T07:47:06.399Z,95.18
2022-11-27T07:48:05.321Z,95.50
2022-11-27T07:49:05.282Z,95.45
2022-11-27T07:50:06.321Z,95.25
2022-11-27T07:51:05.262Z,94.82
2022-11-27T07:52:05.240Z,94.51
2022-11-27T07:53:05.260Z,94.41
2022-11-27T07:54:05.210Z,94.41
2022-11-27T07:55:05.249Z,94.31
2022-11-27T07:56:05.180Z,94.45
2022-11-27T07:57:05.161Z,94.66
2022-11-27T07:58:05.280Z,94.92
2022-11-27T07:59:05.187Z,95.23
2022-11-27T08:00:05.132Z,95.75
2022-11-27T08:01:05.203Z,95.95
2022-11-27T08:02:05.208Z,96.16
2022-11-27T08:03:06.167Z,96.26
2022-11-27T08:04:05.082Z,96.48
2022-11-27T08:05:10.977Z,96.69
2022-11-27T08:06:06.161Z,96.79
2022-11-27T08:07:05.111Z,96.79
2022-11-27T08:08:05.245Z,96.79
2022-11-27T08:09:05.030Z,96.89
2022-11-27T08:10:05.012Z,97.00
2022-11-27T08:11:05.041Z,97.20
2022-11-27T08:12:05.050Z,97.16
2022-11-27T08:13:05.116Z,97.27
2022-11-27T08:14:05.042Z,97.27
2022-11-27T08:15:05.061Z,97.12
2022-11-27T08:16:05.036Z,97.01
2022-11-27T08:17:05.012Z,96.80
2022-11-27T08:18:05.013Z,96.86
2022-11-27T08:19:04.914Z,96.66
2022-11-27T08:20:04.983Z,96.55
2022-11-27T08:21:04.896Z,96.34
2022-11-27T08:22:04.889Z,96.20
2022-11-27T08:23:05.984Z,95.99
2022-11-27T08:24:05.899Z,95.67
2022-11-27T08:25:04.924Z,95.47
2022-11-27T08:26:04.982Z,95.53
2022-11-27T08:27:04.804Z,95.32
2022-11-27T08:28:04.867Z,95.11
2022-11-27T08:29:04.775Z,94.76
2022-11-27T08:30:05.795Z,94.55
2022-11-27T08:31:04.763Z,94.55
2022-11-27T08:32:04.857Z,94.55
2022-11-27T08:33:04.805Z,94.49
2022-11-27T08:34:05.810Z,94.59
2022-11-27T08:35:05.701Z,94.70
2022-11-27T08:36:04.796Z,94.84
2022-11-27T08:37:04.948Z,95.05
2022-11-27T08:38:04.702Z,95.26
2022-11-27T08:39:04.744Z,95.36
2022-11-27T08:40:04.714Z,95.47
2022-11-27T08:41:04.624Z,95.57
2022-11-27T08:42:04.643Z,95.89
2022-11-27T08:43:04.644Z,95.99
2022-11-27T08:44:09.058Z,96.20
2022-11-27T08:45:04.574Z,96.30
2022-11-27T08:46:04.782Z,96.41
2022-11-27T08:47:04.555Z,96.41
2022-11-27T08:48:04.574Z,96.47
2022-11-27T08:49:04.616Z,96.47
2022-11-27T08:50:04.526Z,96.57
2022-11-27T08:51:04.494Z,96.67
2022-11-27T08:52:04.494Z,96.62
2022-11-27T08:53:04.495Z,96.52
2022-11-27T08:54:04.554Z,96.31
2022-11-27T08:55:04.446Z,96.11
2022-11-27T08:56:04.426Z,96.00
2022-11-27T08:57:04.416Z,96.00
2022-11-27T08:58:04.432Z,95.86
2022-11-27T08:59:04.413Z,95.75
2022-11-27T09:00:04.375Z,95.50
2022-11-27T09:01:04.475Z,95.09
2022-11-27T09:02:04.507Z,94.57
2022-11-27T09:04:14.647Z,94.46
2022-11-27T09:05:14.615Z,94.46
2022-11-27T09:06:14.548Z,94.36
2022-11-27T09:07:15.606Z,94.46
2022-11-27T09:08:14.533Z,94.42
2022-11-27T09:09:14.642Z,94.21
2022-11-27T09:10:14.544Z,94.32
2022-11-27T09:11:14.563Z,93.85
2022-11-27T09:12:14.579Z,93.54
2022-11-27T09:13:14.578Z,93.23
2022-11-27T09:14:14.474Z,93.02
2022-11-27T09:15:14.476Z,93.28
2022-11-27T09:16:14.537Z,93.49
2022-11-27T09:17:14.495Z,93.70
2022-11-27T09:18:14.415Z,93.95
2022-11-27T09:19:14.416Z,94.26
2022-11-27T09:20:14.388Z,94.67
2022-11-27T09:21:14.446Z,94.88
2022-11-27T09:22:14.436Z,94.67
2022-11-27T09:23:14.734Z,94.67
2022-11-27T09:24:14.367Z,94.78
2022-11-27T09:25:14.314Z,94.88
2022-11-27T09:26:15.375Z,94.98
2022-11-27T09:27:14.275Z,95.29
2022-11-27T09:28:14.288Z,95.50
2022-11-27T09:29:14.277Z,95.40
2022-11-27T09:30:14.241Z,95.40
2022-11-27T09:31:14.245Z,95.50
2022-11-27T09:32:16.333Z,95.56
2022-11-27T09:33:14.298Z,95.77
2022-11-27T09:34:14.238Z,95.67
2022-11-27T09:35:14.289Z,95.67
2022-11-27T09:36:14.216Z,95.67
2022-11-27T09:37:15.255Z,95.56
2022-11-27T09:38:15.147Z,95.56
2022-11-27T09:39:14.177Z,95.46
2022-11-27T09:40:14.140Z,95.46
2022-11-27T09:41:14.163Z,95.36
2022-11-27T09:42:14.160Z,95.46
2022-11-27T09:43:16.137Z,95.31
2022-11-27T09:44:14.115Z,95.26
2022-11-27T09:45:14.071Z,94.95
2022-11-27T09:46:14.070Z,94.64
2022-11-27T09:47:14.086Z,94.43
2022-11-27T10:03:41.682Z,94.33
2022-11-27T10:05:05.723Z,94.54
2022-11-27T10:05:42.636Z,94.54
2022-11-27T10:06:41.615Z,94.74
2022-11-27T10:07:41.707Z,94.74
2022-11-27T10:08:41.591Z,94.64
2022-11-27T10:09:41.624Z,94.54
2022-11-27T10:10:41.613Z,94.64
2022-11-27T10:11:41.593Z,94.85
2022-11-27T10:12:41.615Z,94.95
2022-11-27T10:13:41.616Z,95.06
2022-11-27T10:14:41.784Z,95.16
2022-11-27T10:15:41.534Z,95.06
2022-11-27T10:16:44.505Z,94.95
2022-11-27T10:17:41.526Z,95.06
2022-11-27T10:18:41.561Z,95.06
2022-11-27T10:19:41.505Z,95.16
2022-11-27T10:20:41.443Z,95.16
2022-11-27T10:21:41.502Z,95.06
2022-11-27T10:22:41.404Z,94.95
2022-11-27T10:23:41.472Z,94.95
2022-11-27T10:24:41.801Z,95.01
2022-11-27T10:25:41.381Z,95.01
2022-11-27T10:26:41.409Z,94.91
2022-11-27T10:27:41.414Z,94.70
2022-11-27T10:28:41.330Z,94.70
2022-11-27T10:29:45.712Z,94.70
2022-11-27T10:30:42.357Z,94.70
2022-11-27T10:31:42.396Z,94.70
2022-11-27T10:32:56.901Z,94.49
2022-11-27T10:33:42.380Z,94.29
2022-11-27T10:34:41.693Z,94.29
2022-11-27T10:35:41.356Z,94.18
2022-11-27T10:36:41.253Z,94.08
2022-11-27T10:38:51.456Z,93.71
2022-11-27T10:39:51.577Z,93.60
2022-11-27T10:40:51.560Z,93.71
2022-11-27T10:41:51.456Z,93.81
2022-11-27T10:42:51.467Z,94.06
2022-11-27T10:43:51.488Z,94.27
2022-11-27T10:44:51.518Z,94.37
2022-11-27T10:45:51.426Z,94.68
2022-11-27T10:46:51.406Z,94.74
2022-11-27T10:47:51.357Z,94.85
2022-11-27T10:48:51.337Z,94.85
2022-11-27T10:49:51.436Z,94.91
2022-11-27T10:50:51.297Z,94.81
2022-11-27T10:51:51.278Z,94.39
2022-11-27T10:52:52.666Z,94.08
2022-11-27T10:53:51.314Z,93.91
2022-11-27T10:54:51.261Z,93.91
2022-11-27T10:55:51.249Z,94.12
2022-11-27T10:56:51.219Z,94.12
2022-11-27T10:57:51.194Z,94.54
2022-11-27T10:58:51.199Z,94.60
2022-11-27T10:59:51.284Z,94.70
2022-11-27T11:00:51.340Z,94.81
2022-11-27T11:01:51.184Z,94.81
2022-11-27T11:02:51.138Z,94.70
2022-11-27T11:03:51.169Z,94.60
2022-11-27T11:05:09.062Z,94.70
2022-11-27T11:06:18.753Z,94.70
2022-11-27T11:06:52.078Z,94.74
2022-11-27T11:07:51.130Z,94.74
2022-11-27T11:08:51.057Z,94.81
2022-11-27T11:09:51.115Z,94.81
2022-11-27T11:10:51.075Z,94.81
2022-11-27T11:11:51.118Z,94.81
2022-11-27T11:13:13.048Z,94.70
2022-11-27T11:13:51.074Z,94.81
2022-11-27T11:14:52.067Z,94.91
2022-11-27T11:15:51.931Z,95.01
2022-11-27T11:16:51.018Z,95.12
2022-11-27T11:17:50.980Z,95.12
2022-11-27T11:18:50.936Z,95.01
2022-11-27T11:19:50.978Z,94.91
2022-11-27T11:20:51.017Z,94.91
2022-11-27T11:21:50.899Z,95.01
2022-11-27T11:22:50.897Z,95.01
2022-11-27T11:23:50.858Z,95.01
2022-11-27T11:24:50.911Z,95.01
2022-11-27T11:25:50.970Z,94.91
2022-11-27T11:26:50.819Z,94.60
2022-11-27T11:27:50.807Z,94.76
2022-11-27T11:28:50.789Z,94.87
2022-11-27T11:29:50.798Z,94.62
2022-11-27T11:30:50.859Z,94.37
2022-11-27T11:31:50.817Z,93.85
2022-11-27T11:32:50.766Z,93.08
2022-11-27T11:33:50.729Z,92.25
2022-11-27T11:34:51.211Z,91.94
2022-11-27T11:35:50.738Z,92.15
2022-11-27T11:36:50.731Z,92.00
2022-11-27T11:37:50.680Z,91.49
2022-11-27T11:38:50.728Z,90.97
2022-11-27T11:39:50.710Z,90.87
2022-11-27T11:40:50.729Z,90.39
2022-11-27T11:41:51.668Z,90.53
2022-11-27T11:42:50.611Z,91.47
2022-11-27T11:43:51.659Z,91.88
2022-11-27T11:44:50.650Z,91.99
2022-11-27T11:45:50.688Z,91.99
2022-11-27T11:46:50.676Z,92.09
2022-11-27T11:47:50.662Z,92.19
2022-11-27T11:48:50.629Z,92.30
2022-11-27T11:49:50.581Z,92.46
2022-11-27T11:50:50.581Z,92.15
2022-11-27T11:51:50.510Z,92.00
2022-11-27T11:52:50.610Z,91.49
2022-11-27T11:53:50.482Z,91.38
2022-11-27T11:54:50.503Z,91.07
2022-11-27T11:55:50.508Z,90.83
2022-11-27T11:56:50.545Z,89.89
2022-11-27T11:57:50.522Z,89.69
2022-11-27T11:58:50.422Z,89.34
2022-11-27T11:59:50.443Z,88.65
2022-11-27T12:01:25.016Z,88.86
2022-11-27T12:01:51.440Z,88.76
2022-11-27T12:02:50.449Z,89.01
2022-11-27T12:03:50.461Z,89.42
2022-11-27T12:04:50.530Z,90.14
2022-11-27T12:05:50.371Z,90.14
2022-11-27T12:06:50.322Z,90.35
2022-11-27T12:07:52.448Z,90.14
2022-11-27T12:08:50.282Z,90.66
2022-11-27T12:09:50.272Z,90.77
2022-11-27T12:10:50.303Z,90.87
2022-11-27T12:11:50.315Z,90.66
2022-11-27T12:12:50.321Z,90.66
2022-11-27T12:13:50.325Z,89.87
2022-11-27T12:14:50.193Z,90.33
2022-11-27T12:15:50.201Z,90.74
2022-11-27T12:16:50.347Z,91.05
2022-11-27T12:17:51.173Z,91.26
2022-11-27T12:18:50.152Z,91.36
2022-11-27T12:19:50.163Z,91.78
2022-11-27T12:20:50.115Z,91.88
2022-11-27T12:21:50.192Z,91.78
2022-11-27T12:22:51.264Z,91.88
2022-11-27T12:23:50.089Z,91.67
2022-11-27T12:24:50.093Z,91.57
2022-11-27T12:25:50.095Z,91.47
2022-11-27T12:26:50.126Z,91.32
2022-11-27T12:27:50.118Z,91.11
2022-11-27T12:28:53.230Z,91.11
2022-11-27T12:29:51.055Z,90.87
2022-11-27T12:30:50.165Z,90.45
2022-11-27T12:31:50.068Z,90.25
2022-11-27T12:32:50.075Z,90.04
2022-11-27T12:33:49.947Z,89.83
2022-11-27T12:35:11.015Z,90.08
2022-11-27T12:35:49.935Z,90.08
2022-11-27T12:36:49.974Z,90.39
2022-11-27T12:37:49.919Z,90.70
2022-11-27T12:38:49.985Z,91.01
2022-11-27T12:39:49.884Z,91.11
2022-11-27T12:40:49.864Z,91.11
2022-11-27T12:41:49.897Z,91.11
2022-11-27T12:42:49.968Z,91.22
2022-11-27T12:43:49.927Z,91.07
2022-11-27T12:44:49.820Z,90.97
2022-11-27T12:45:49.887Z,90.97
2022-11-27T12:46:49.777Z,90.87
2022-11-27T12:47:49.795Z,90.97
2022-11-27T12:48:49.856Z,90.77
2022-11-27T12:49:49.747Z,90.14
2022-11-27T12:50:49.736Z,89.94
2022-11-27T12:51:49.737Z,89.48
2022-11-27T12:52:49.743Z,89.38
2022-11-27T12:53:49.786Z,88.71
2022-11-27T12:54:49.796Z,88.45
2022-11-27T12:55:49.697Z,88.14
2022-11-27T12:56:49.751Z,88.45
2022-11-27T12:57:49.674Z,88.59
2022-11-27T12:58:49.725Z,88.96
2022-11-27T12:59:50.674Z,89.28
2022-11-27T13:00:49.642Z,88.80
2022-11-27T13:01:49.659Z,88.80
2022-11-27T13:02:49.683Z,89.73
2022-11-27T13:03:50.706Z,89.94
2022-11-27T13:04:49.649Z,90.00
2022-11-27T13:05:49.527Z,89.59
2022-11-27T13:06:49.516Z,89.89
2022-11-27T13:07:49.724Z,89.89
2022-11-27T13:08:52.459Z,89.69
2022-11-27T13:09:49.477Z,89.38
2022-11-27T13:10:49.506Z,89.32
2022-11-27T13:11:49.447Z,89.11
2022-11-27T13:12:49.546Z,89.11
2022-11-27T13:13:49.506Z,89.73
2022-11-27T13:14:52.672Z,90.04
2022-11-27T13:15:50.462Z,89.94
2022-11-27T13:16:50.499Z,89.94
2022-11-27T13:17:49.388Z,89.83
2022-11-27T13:18:49.437Z,89.83
2022-11-27T13:19:49.335Z,89.73
2022-11-27T13:20:52.291Z,89.83
2022-11-27T13:21:49.358Z,90.14
2022-11-27T13:22:50.330Z,90.29
2022-11-27T13:23:49.301Z,90.39
2022-11-27T13:24:49.427Z,90.29
2022-11-27T13:25:49.300Z,90.19
2022-11-27T13:26:49.259Z,90.08
2022-11-27T13:27:49.328Z,90.33
2022-11-27T13:28:49.308Z,90.64
2022-11-27T13:29:49.356Z,90.95